EZY63HD EGGW-LSGG
Flight info
| Callsign | EZY63HD |
|---|---|
| Flight time | N/A |
| Altitude | 37000 |
| Route | RODNI N27 ICTAM Q63 CPT DCT MID UL612 RESMI UM975 PEKIM DCT PILUL DCT PIMUP/N0443F270 DCT PIXIS DCT PIBAT/N0419F230 DCT LUSAR |
| Aircraft | A320/M-SDE3FGHIRWY/LB1 |
Departure
| Time | 2026-05-06 11:59 |
|---|---|
| Airport | London Luton Airport (EGGW) |
Arrival
| Time | N/A |
|---|---|
| Airport | Geneva International Airport (LSGG) |
| Time | Latitude | Longitude | Altitude | Speed | Heading |
|---|---|---|---|---|---|
| 2026-05-06 10:54 | 51.88052 | -0.37788 | 534 ft | 0 kts | 127° |
| 2026-05-06 11:26 | 51.88052 | -0.37789 | 534 ft | 0 kts | 127° |
| 2026-05-06 11:34 | 51.88054 | -0.37793 | 534 ft | 3 kts | 127° |
| 2026-05-06 11:35 | 51.88068 | -0.37822 | 534 ft | 2 kts | 127° |
| 2026-05-06 11:35 | 51.88082 | -0.37842 | 534 ft | 4 kts | 186° |
| 2026-05-06 11:35 | 51.88105 | -0.37828 | 534 ft | 4 kts | 216° |
| 2026-05-06 11:35 | 51.88122 | -0.37803 | 534 ft | 4 kts | 230° |
| 2026-05-06 11:36 | 51.88126 | -0.37795 | 534 ft | 0 kts | 228° |
| 2026-05-06 11:36 | 51.88127 | -0.37795 | 534 ft | 0 kts | 228° |
| 2026-05-06 11:44 | 51.88117 | -0.37810 | 534 ft | 4 kts | 225° |
| 2026-05-06 11:44 | 51.88083 | -0.37854 | 534 ft | 8 kts | 218° |
| 2026-05-06 11:44 | 51.88029 | -0.37925 | 534 ft | 12 kts | 218° |
| 2026-05-06 11:45 | 51.87954 | -0.38007 | 534 ft | 13 kts | 201° |
| 2026-05-06 11:45 | 51.87870 | -0.38006 | 534 ft | 12 kts | 162° |
| 2026-05-06 11:45 | 51.87809 | -0.37938 | 534 ft | 10 kts | 124° |
| 2026-05-06 11:45 | 51.87804 | -0.37848 | 534 ft | 6 kts | 86° |
| 2026-05-06 11:46 | 51.87799 | -0.37822 | 534 ft | 0 kts | 115° |
| 2026-05-06 11:51 | 51.87793 | -0.37817 | 534 ft | 4 kts | 147° |
| 2026-05-06 11:52 | 51.87773 | -0.37796 | 534 ft | 4 kts | 140° |
| 2026-05-06 11:52 | 51.87743 | -0.37712 | 534 ft | 12 kts | 114° |
| 2026-05-06 11:52 | 51.87705 | -0.37577 | 534 ft | 14 kts | 115° |
| 2026-05-06 11:52 | 51.87638 | -0.37468 | 535 ft | 13 kts | 159° |
| 2026-05-06 11:53 | 51.87557 | -0.37459 | 536 ft | 11 kts | 197° |
| 2026-05-06 11:53 | 51.87494 | -0.37523 | 536 ft | 10 kts | 225° |
| 2026-05-06 11:53 | 51.87449 | -0.37602 | 536 ft | 9 kts | 227° |
| 2026-05-06 11:53 | 51.87412 | -0.37664 | 536 ft | 0 kts | 225° |
| 2026-05-06 11:55 | 51.87411 | -0.37666 | 536 ft | 2 kts | 225° |
| 2026-05-06 11:55 | 51.87399 | -0.37682 | 536 ft | 1 kts | 217° |
| 2026-05-06 11:55 | 51.87342 | -0.37691 | 536 ft | 13 kts | 155° |
| 2026-05-06 11:56 | 51.87330 | -0.37615 | 536 ft | 0 kts | 75° |
| 2026-05-06 11:58 | 51.87369 | -0.37392 | 538 ft | 57 kts | 75° |
| 2026-05-06 11:58 | 51.87536 | -0.36413 | 537 ft | 120 kts | 74° |
| 2026-05-06 11:58 | 51.87798 | -0.34917 | 910 ft | 139 kts | 69° |
| 2026-05-06 11:59 | 51.88049 | -0.33406 | 1701 ft | 144 kts | 68° |
| 2026-05-06 11:59 | 51.88332 | -0.31754 | 2133 ft | 161 kts | 68° |
| 2026-05-06 11:59 | 51.88683 | -0.29921 | 2576 ft | 180 kts | 69° |
| 2026-05-06 11:59 | 51.89074 | -0.27855 | 2855 ft | 204 kts | 70° |
| 2026-05-06 12:00 | 51.89172 | -0.25404 | 3144 ft | 239 kts | 102° |
| 2026-05-06 12:00 | 51.88245 | -0.22991 | 3649 ft | 270 kts | 137° |
| 2026-05-06 12:00 | 51.86531 | -0.21634 | 3946 ft | 281 kts | 169° |
| 2026-05-06 12:00 | 51.84619 | -0.21940 | 4010 ft | 280 kts | 204° |
| 2026-05-06 12:01 | 51.83154 | -0.23864 | 4011 ft | 271 kts | 240° |
| 2026-05-06 12:01 | 51.82564 | -0.26687 | 4012 ft | 265 kts | 265° |
| 2026-05-06 12:01 | 51.82426 | -0.29646 | 4009 ft | 263 kts | 270° |
| 2026-05-06 12:01 | 51.82329 | -0.32600 | 4007 ft | 264 kts | 270° |
| 2026-05-06 12:02 | 51.82234 | -0.35568 | 4009 ft | 264 kts | 271° |
| 2026-05-06 12:02 | 51.82137 | -0.38529 | 4007 ft | 264 kts | 269° |
| 2026-05-06 12:02 | 51.81871 | -0.41476 | 4008 ft | 266 kts | 261° |
| 2026-05-06 12:02 | 51.81447 | -0.44396 | 4008 ft | 268 kts | 258° |
| 2026-05-06 12:03 | 51.80965 | -0.47307 | 4008 ft | 268 kts | 256° |
| 2026-05-06 12:03 | 51.80639 | -0.49226 | 4014 ft | 268 kts | 257° |
| 2026-05-06 12:03 | 51.79996 | -0.53090 | 4008 ft | 266 kts | 259° |
| 2026-05-06 12:03 | 51.79686 | -0.55009 | 4010 ft | 267 kts | 258° |
| 2026-05-06 12:04 | 51.79226 | -0.57920 | 4122 ft | 271 kts | 259° |
| 2026-05-06 12:04 | 51.78768 | -0.60896 | 4848 ft | 275 kts | 259° |
| 2026-05-06 12:04 | 51.78311 | -0.63871 | 4980 ft | 271 kts | 259° |
| 2026-05-06 12:04 | 51.77859 | -0.66811 | 5015 ft | 269 kts | 259° |
| 2026-05-06 12:05 | 51.77408 | -0.69744 | 5009 ft | 269 kts | 259° |
| 2026-05-06 12:05 | 51.76957 | -0.72669 | 5003 ft | 269 kts | 259° |
| 2026-05-06 12:05 | 51.76507 | -0.75595 | 5004 ft | 269 kts | 259° |
| 2026-05-06 12:05 | 51.75878 | -0.78442 | 5016 ft | 272 kts | 245° |
| 2026-05-06 12:06 | 51.74792 | -0.80951 | 5012 ft | 276 kts | 229° |
| 2026-05-06 12:06 | 51.73433 | -0.83144 | 5014 ft | 276 kts | 227° |
| 2026-05-06 12:06 | 51.72083 | -0.85314 | 5015 ft | 275 kts | 227° |
| 2026-05-06 12:06 | 51.70727 | -0.87505 | 5108 ft | 281 kts | 227° |
| 2026-05-06 12:07 | 51.69339 | -0.89749 | 6076 ft | 281 kts | 228° |
| 2026-05-06 12:07 | 51.67951 | -0.91981 | 7057 ft | 283 kts | 228° |
| 2026-05-06 12:07 | 51.66551 | -0.94227 | 7981 ft | 285 kts | 227° |
| 2026-05-06 12:07 | 51.65137 | -0.96492 | 8924 ft | 288 kts | 227° |
| 2026-05-06 12:08 | 51.63724 | -0.98752 | 9882 ft | 289 kts | 228° |
| 2026-05-06 12:08 | 51.62313 | -1.01004 | 10448 ft | 303 kts | 228° |
| 2026-05-06 12:08 | 51.60766 | -1.03482 | 10786 ft | 324 kts | 228° |
| 2026-05-06 12:08 | 51.59150 | -1.06067 | 11464 ft | 331 kts | 226° |
| 2026-05-06 12:09 | 51.57538 | -1.08637 | 12244 ft | 334 kts | 227° |
| 2026-05-06 12:09 | 51.55876 | -1.11282 | 13014 ft | 337 kts | 226° |
| 2026-05-06 12:09 | 51.54090 | -1.13774 | 13804 ft | 342 kts | 217° |
| 2026-05-06 12:09 | 51.52036 | -1.15672 | 14465 ft | 348 kts | 204° |
| 2026-05-06 12:10 | 51.49690 | -1.16747 | 15127 ft | 354 kts | 189° |
| 2026-05-06 12:10 | 51.47260 | -1.16745 | 15754 ft | 361 kts | 172° |
| 2026-05-06 12:10 | 51.44820 | -1.15519 | 16431 ft | 367 kts | 155° |
| 2026-05-06 12:10 | 51.42770 | -1.13261 | 16994 ft | 374 kts | 140° |
| 2026-05-06 12:11 | 51.40833 | -1.10569 | 17694 ft | 375 kts | 140° |
| 2026-05-06 12:11 | 51.38863 | -1.07845 | 18368 ft | 378 kts | 140° |
| 2026-05-06 12:11 | 51.36884 | -1.05127 | 18880 ft | 383 kts | 141° |
| 2026-05-06 12:11 | 51.35555 | -1.03312 | 19230 ft | 385 kts | 141° |
| 2026-05-06 12:13 | 51.35000 | -1.02559 | 19375 ft | 386 kts | 141° |